Time;durP1;ratioP1;P1;durP2;ratioP2;P2;SDS_P1;SDS_P2;PMS_P1;PMS_P2;Temp;Humidity;BMP_temperature;BMP_pressure;BME280_temperature;BME280_humidity;BME280_pressure;Samples;Min_cycle;Max_cycle;Signal;HPM_P1;HPM_P2
2021/06/15 00:00:05;;;;;;;10.45;6.10;;;;;;;16.18;68.36;99615.75;5015607;28;20054;-61
2021/06/15 00:02:31;;;;;;;11.80;5.90;;;;;;;16.13;69.13;99623.88;5016185;28;20018;-61
2021/06/15 00:04:56;;;;;;;10.50;6.15;;;;;;;16.12;69.20;99622.22;5016242;28;20029;-61
2021/06/15 00:07:21;;;;;;;12.60;6.20;;;;;;;16.22;69.15;99618.72;5015703;28;20045;-62
2021/06/15 00:09:47;;;;;;;12.10;5.50;;;;;;;16.39;68.18;99621.97;5016064;28;20045;-62
2021/06/15 00:12:13;;;;;;;12.45;5.57;;;;;;;16.38;68.17;99619.56;5015552;28;20038;-63
2021/06/15 00:14:38;;;;;;;12.70;6.35;;;;;;;16.33;68.27;99616.84;5015990;28;20038;-62
2021/06/15 00:17:04;;;;;;;9.85;5.97;;;;;;;16.29;68.72;99610.34;5015066;28;20491;-62
2021/06/15 00:19:30;;;;;;;10.63;5.80;;;;;;;16.23;68.61;99617.66;4996467;28;20027;-62
2021/06/15 00:21:55;;;;;;;13.38;5.40;;;;;;;16.22;69.07;99626.84;4994516;28;20084;-62
2021/06/15 00:24:21;;;;;;;11.68;5.45;;;;;;;16.11;69.98;99620.63;4996115;28;20034;-62
2021/06/15 00:26:46;;;;;;;11.98;5.07;;;;;;;16.02;70.10;99618.72;4995643;28;20050;-62
2021/06/15 00:29:11;;;;;;;11.07;4.90;;;;;;;15.97;70.56;99630.31;4996186;28;20034;-63
2021/06/15 00:31:37;;;;;;;11.75;6.30;;;;;;;15.96;70.55;99623.31;4994450;28;20034;-62
2021/06/15 00:34:02;;;;;;;11.00;5.65;;;;;;;16.00;70.88;99619.00;4994847;28;20122;-62
2021/06/15 00:36:28;;;;;;;15.43;6.70;;;;;;;15.99;70.70;99611.97;4995624;28;20042;-63
2021/06/15 00:38:53;;;;;;;13.02;5.50;;;;;;;15.65;72.45;99617.81;4995948;28;20022;-63
2021/06/15 00:41:19;;;;;;;13.05;6.07;;;;;;;15.58;72.46;99611.84;4995324;28;20035;-62
2021/06/15 00:43:44;;;;;;;15.75;6.00;;;;;;;15.72;72.28;99618.41;4995823;28;20037;-62
2021/06/15 00:46:10;;;;;;;17.08;5.60;;;;;;;15.73;72.25;99608.41;4995571;28;20038;-63
2021/06/15 00:48:36;;;;;;;10.52;6.15;;;;;;;15.74;70.89;99620.84;4995770;28;20065;-63
2021/06/15 00:51:02;;;;;;;14.13;6.35;;;;;;;15.40;71.77;99613.16;4995401;28;20037;-63
2021/06/15 00:53:28;;;;;;;13.32;6.10;;;;;;;15.35;72.40;99623.09;4995695;28;20081;-63
2021/06/15 00:55:53;;;;;;;14.20;6.22;;;;;;;15.22;73.16;99624.41;4993889;28;20058;-63
2021/06/15 00:58:20;;;;;;;13.27;6.22;;;;;;;15.18;73.99;99621.44;4995315;28;20044;-62
2021/06/15 01:00:45;;;;;;;9.90;6.05;;;;;;;15.25;73.22;99623.88;4994636;28;20038;-63
2021/06/15 01:03:10;;;;;;;11.80;5.72;;;;;;;15.31;73.37;99639.84;4995346;28;20366;-62
2021/06/15 01:05:36;;;;;;;13.40;5.80;;;;;;;14.79;74.15;99664.94;4994876;28;20108;-62
2021/06/15 01:08:22;;;;;;;10.80;6.25;;;;;;;14.41;76.18;99669.47;4994705;28;20030;-62
2021/06/15 01:11:03;;;;;;;8.85;6.13;;;;;;;14.09;77.93;99665.94;4993616;28;20058;-63
2021/06/15 01:13:28;;;;;;;;;;;;;;;14.40;77.36;99656.22;4995584;28;20201;-61
2021/06/15 01:15:57;;;;;;;9.52;6.00;;;;;;;14.53;77.16;99649.63;4994623;28;20440;-62
2021/06/15 01:18:24;;;;;;;13.75;6.72;;;;;;;14.77;76.11;99645.47;4993772;28;20062;-63
2021/06/15 01:20:50;;;;;;;13.98;6.45;;;;;;;14.75;76.33;99653.03;4994482;28;20103;-62
2021/06/15 01:23:48;;;;;;;12.77;6.22;;;;;;;14.79;75.89;99645.22;4993614;28;20023;-62
2021/06/15 01:26:16;;;;;;;12.23;6.40;;;;;;;14.86;75.24;99649.31;4993943;28;20044;-62
2021/06/15 01:29:02;;;;;;;14.73;6.55;;;;;;;14.90;74.78;99644.19;4977351;28;20038;-62
2021/06/15 01:31:46;;;;;;;12.90;6.20;;;;;;;14.76;75.51;99654.66;4994268;28;20103;-62
2021/06/15 01:34:16;;;;;;;10.07;6.25;;;;;;;14.64;75.76;99641.34;4994795;28;20022;-63
2021/06/15 01:37:12;;;;;;;13.13;6.78;;;;;;;14.84;75.00;99645.25;4977379;28;20045;-63
2021/06/15 01:40:12;;;;;;;16.42;6.53;;;;;;;14.69;75.45;99637.88;4992987;28;20103;-63
2021/06/15 01:42:43;;;;;;;11.07;6.47;;;;;;;14.83;74.62;99633.66;4993129;28;20280;-62
2021/06/15 01:45:09;;;;;;;12.25;6.45;;;;;;;14.82;74.70;99636.59;4977205;28;20022;-63
2021/06/15 01:47:35;;;;;;;14.30;6.70;;;;;;;14.70;75.22;99636.78;4994452;28;20102;-63
2021/06/15 01:50:03;;;;;;;10.30;6.07;;;;;;;14.64;74.73;99640.53;4993992;28;20053;-62
2021/06/15 01:52:34;;;;;;;15.25;6.30;;;;;;;14.59;75.78;99638.63;4994497;28;20034;-63
2021/06/15 01:55:00;;;;;;;16.60;6.90;;;;;;;14.60;75.68;99634.84;4994212;28;20022;-62
2021/06/15 01:57:25;;;;;;;11.50;6.07;;;;;;;14.62;75.55;99634.59;4992596;28;20492;-62
2021/06/15 01:59:51;;;;;;;12.23;6.35;;;;;;;14.74;75.54;99634.41;4992570;28;20381;-63
2021/06/15 02:02:16;;;;;;;10.63;6.43;;;;;;;14.72;75.07;99629.25;4960199;28;20070;-63
2021/06/15 02:04:48;;;;;;;14.23;6.65;;;;;;;14.69;75.19;99631.66;4992664;28;20109;-62
2021/06/15 02:07:34;;;;;;;14.05;6.20;;;;;;;14.57;74.76;99638.06;4992590;28;20374;-62
2021/06/15 02:10:05;;;;;;;10.65;6.10;;;;;;;14.55;75.07;99636.69;4992764;28;20031;-62
2021/06/15 02:12:31;;;;;;;11.40;6.60;;;;;;;14.52;75.27;99631.78;4992402;28;20121;-62
2021/06/15 02:14:56;;;;;;;11.90;6.30;;;;;;;14.36;76.64;99633.56;4992750;28;20117;-62
2021/06/15 02:17:23;;;;;;;11.85;6.35;;;;;;;14.37;75.94;99635.19;5009189;28;20069;-62
2021/06/15 02:19:48;;;;;;;8.60;5.68;;;;;;;14.32;76.02;99633.25;5011696;28;20038;-62
2021/06/15 02:22:15;;;;;;;15.75;6.88;;;;;;;14.15;76.80;99637.94;4995366;28;20038;-63
2021/06/15 02:24:44;;;;;;;12.15;6.20;;;;;;;13.91;77.53;99638.28;5012301;28;20021;-63
2021/06/15 02:27:10;;;;;;;13.52;6.90;;;;;;;13.86;77.82;99635.53;4995685;28;20126;-63
2021/06/15 02:29:38;;;;;;;13.80;6.45;;;;;;;14.01;77.87;99627.59;5012083;28;20065;-62
2021/06/15 02:32:04;;;;;;;16.25;7.00;;;;;;;14.09;78.33;99638.97;5013167;28;20037;-62
2021/06/15 02:34:29;;;;;;;12.45;7.20;;;;;;;14.15;77.86;99632.56;5013567;28;20376;-62
2021/06/15 02:36:55;;;;;;;15.82;7.18;;;;;;;13.99;78.54;99640.50;5012991;28;20041;-63
2021/06/15 02:39:22;;;;;;;14.43;7.93;;;;;;;14.26;77.32;99638.88;4995729;28;20021;-62
2021/06/15 02:41:47;;;;;;;13.82;7.50;;;;;;;14.34;76.75;99652.69;5012827;28;20149;-63
2021/06/15 02:44:19;;;;;;;14.57;7.47;;;;;;;14.21;77.57;99645.84;5013119;28;20067;-61
2021/06/15 02:46:47;;;;;;;13.90;7.10;;;;;;;14.15;77.16;99643.34;5011522;28;20030;-63
2021/06/15 02:49:18;;;;;;;18.80;7.28;;;;;;;14.33;76.52;99645.69;5012880;28;20314;-63
2021/06/15 02:51:50;;;;;;;12.02;7.45;;;;;;;14.24;77.56;99645.31;5011373;28;20042;-62
2021/06/15 02:54:22;;;;;;;18.27;8.45;;;;;;;14.19;77.59;99644.47;5011717;28;20358;-62
2021/06/15 02:56:49;;;;;;;16.15;7.90;;;;;;;14.39;76.27;99647.31;5011064;28;20480;-62
2021/06/15 02:59:14;;;;;;;23.42;8.52;;;;;;;14.50;76.80;99650.09;5011399;28;20399;-62
2021/06/15 03:01:45;;;;;;;20.55;8.75;;;;;;;14.68;75.26;99655.16;4978250;28;20045;-62
2021/06/15 03:04:10;;;;;;;16.48;9.30;;;;;;;14.68;75.11;99652.44;5012759;28;20030;-63
2021/06/15 03:06:36;;;;;;;16.98;8.43;;;;;;;14.64;74.03;99654.03;5011183;28;20041;-62
2021/06/15 03:09:01;;;;;;;24.02;8.07;;;;;;;14.19;76.25;99657.94;5012600;28;20038;-62
2021/06/15 03:11:27;;;;;;;19.13;8.90;;;;;;;14.24;77.27;99652.59;5010840;28;20038;-62
2021/06/15 03:13:54;;;;;;;21.05;10.30;;;;;;;14.62;75.87;99648.06;4995165;28;20037;-63
2021/06/15 03:16:21;;;;;;;23.17;10.48;;;;;;;14.68;75.10;99647.06;5011111;28;20026;-62
2021/06/15 03:19:06;;;;;;;21.02;8.52;;;;;;;14.45;75.25;99649.00;4995568;28;20417;-62
2021/06/15 03:21:34;;;;;;;12.73;6.68;;;;;;;14.29;74.76;99649.94;5011144;28;20034;-62
2021/06/15 03:24:02;;;;;;;14.07;7.10;;;;;;;14.10;76.11;99654.06;5011379;28;20384;-62
2021/06/15 03:26:50;;;;;;;14.02;6.72;;;;;;;14.04;76.55;99658.59;5012233;28;20042;-62
2021/06/15 03:29:23;;;;;;;13.85;7.13;;;;;;;13.95;76.23;99658.28;5012779;28;20036;-62
2021/06/15 03:31:50;;;;;;;14.52;6.90;;;;;;;13.73;77.43;99660.19;5014480;28;20491;-62
2021/06/15 03:34:22;;;;;;;18.25;9.35;;;;;;;13.97;77.24;99664.19;5016575;28;20021;-62
2021/06/15 03:36:48;;;;;;;24.77;8.63;;;;;;;13.91;77.29;99659.81;5014853;28;20040;-62
2021/06/15 03:39:15;;;;;;;19.42;10.52;;;;;;;14.23;76.44;99664.47;4998975;28;20026;-63
2021/06/15 03:41:40;;;;;;;25.92;10.70;;;;;;;14.39;76.25;99663.50;4982246;28;20030;-62
2021/06/15 03:44:06;;;;;;;21.45;9.68;;;;;;;14.62;74.87;99664.25;5015118;28;20353;-62
2021/06/15 03:46:32;;;;;;;16.58;9.70;;;;;;;14.64;74.96;99667.50;4998223;28;20471;-62
2021/06/15 03:48:58;;;;;;;19.83;9.98;;;;;;;14.31;76.00;99669.38;5016345;28;20022;-62
2021/06/15 03:51:36;;;;;;;20.45;9.05;;;;;;;14.55;74.76;99663.66;5014550;28;20404;-62
2021/06/15 03:54:11;;;;;;;21.83;10.30;;;;;;;14.47;75.99;99673.00;5015025;28;20563;-62
2021/06/15 03:56:39;;;;;;;22.17;11.13;;;;;;;14.85;74.02;99674.69;5015870;28;20037;-62
2021/06/15 03:59:06;;;;;;;19.98;11.18;;;;;;;14.82;74.87;99669.00;5014762;28;20046;-62
2021/06/15 04:01:33;;;;;;;17.75;11.02;;;;;;;15.34;73.70;99670.91;5014485;28;20096;-62
2021/06/15 04:03:59;;;;;;;27.95;12.60;;;;;;;15.73;71.78;99679.47;5014842;28;20496;-62
2021/06/15 04:06:24;;;;;;;14.13;8.23;;;;;;;15.23;71.33;99685.44;4981791;28;20088;-62
2021/06/15 04:08:50;;;;;;;14.90;8.13;;;;;;;15.40;70.86;99677.13;5016066;28;20400;-62
2021/06/15 04:11:17;;;;;;;20.30;8.45;;;;;;;15.87;68.47;99682.47;5015508;28;20049;-62
2021/06/15 04:13:42;;;;;;;18.33;7.90;;;;;;;16.00;67.90;99685.75;5014531;28;20045;-62
2021/06/15 04:16:08;;;;;;;16.20;8.63;;;;;;;15.69;68.43;99686.47;5014635;28;20038;-62
2021/06/15 04:18:34;;;;;;;20.55;8.48;;;;;;;15.68;68.82;99687.53;5014572;28;20022;-62
2021/06/15 04:21:02;;;;;;;13.77;8.70;;;;;;;15.73;69.48;99692.19;4998228;28;20037;-64
2021/06/15 04:23:30;;;;;;;15.77;7.93;;;;;;;16.17;67.68;99684.47;5015894;28;20379;-62
2021/06/15 04:25:55;;;;;;;18.33;8.80;;;;;;;15.98;69.21;99687.94;5014113;28;20061;-62
2021/06/15 04:28:21;;;;;;;19.40;10.27;;;;;;;17.07;66.66;99685.00;5014143;28;20037;-62
2021/06/15 04:30:46;;;;;;;16.75;8.25;;;;;;;17.37;63.63;99695.75;5013959;28;20048;-62
2021/06/15 04:33:13;;;;;;;17.75;8.07;;;;;;;17.41;63.17;99694.09;4997981;28;20337;-61
2021/06/15 04:35:43;;;;;;;18.67;8.80;;;;;;;17.34;63.50;99690.88;5015105;28;20034;-62
2021/06/15 04:38:13;;;;;;;;;;;;;;;17.89;61.09;99697.19;5014552;28;20458;-62
2021/06/15 04:40:47;;;;;;;16.83;8.25;;;;;;;17.64;62.25;99694.56;5014874;28;19921;-61
2021/06/15 04:43:22;;;;;;;18.25;8.38;;;;;;;17.22;64.47;99693.91;5013612;28;20036;-61
2021/06/15 04:45:47;;;;;;;21.45;9.15;;;;;;;17.11;65.75;99702.31;5013799;28;20111;-62
2021/06/15 04:48:32;;;;;;;13.80;8.43;;;;;;;17.64;63.31;99689.94;5014186;28;20461;-62
2021/06/15 04:50:59;;;;;;;18.60;9.30;;;;;;;17.61;63.31;99698.63;5013615;28;20045;-62
2021/06/15 04:53:25;;;;;;;17.13;9.05;;;;;;;17.85;62.71;99701.56;5013857;28;20028;-62
2021/06/15 04:55:50;;;;;;;21.35;9.27;;;;;;;18.39;60.75;99701.75;4997333;28;20034;-62
2021/06/15 04:58:16;;;;;;;17.15;8.38;;;;;;;18.49;60.85;99701.69;4997780;28;20034;-62
2021/06/15 05:00:41;;;;;;;16.15;9.13;;;;;;;19.05;58.54;99709.38;5013362;28;20038;-62
2021/06/15 05:03:07;;;;;;;22.75;8.98;;;;;;;18.63;60.14;99708.09;5014093;28;20042;-62
2021/06/15 05:05:32;;;;;;;21.77;9.00;;;;;;;19.23;58.04;99704.31;5013494;28;20034;-62
2021/06/15 05:08:04;;;;;;;20.77;9.07;;;;;;;19.18;58.57;99707.91;4997790;28;20073;-62
2021/06/15 05:10:30;;;;;;;18.02;8.98;;;;;;;18.88;59.34;99717.16;5014684;28;20088;-62
2021/06/15 05:12:56;;;;;;;22.30;10.48;;;;;;;19.52;57.18;99707.78;5013899;28;20030;-62
2021/06/15 05:15:23;;;;;;;17.95;9.02;;;;;;;20.61;54.32;99710.69;5013312;28;20085;-62
2021/06/15 05:17:49;;;;;;;18.65;9.80;;;;;;;21.00;53.53;99720.38;4997336;28;20526;-62
2021/06/15 05:20:15;;;;;;;19.83;9.65;;;;;;;21.60;51.91;99714.09;5013249;28;20092;-62
2021/06/15 05:22:45;;;;;;;30.30;9.65;;;;;;;21.43;51.42;99722.88;4980884;28;20026;-62
2021/06/15 05:25:11;;;;;;;15.75;9.13;;;;;;;21.91;50.57;99722.44;5013375;28;20116;-62
2021/06/15 05:27:36;;;;;;;15.23;9.00;;;;;;;22.46;49.30;99724.25;5013316;28;20049;-62
2021/06/15 05:30:04;;;;;;;32.08;9.52;;;;;;;22.44;49.07;99731.94;5014190;28;20034;-62
2021/06/15 05:32:29;;;;;;;19.92;9.52;;;;;;;22.45;49.27;99726.19;5014504;28;20033;-62
2021/06/15 05:34:55;;;;;;;18.85;8.45;;;;;;;22.37;49.62;99735.91;5014474;28;20112;-62
2021/06/15 05:37:20;;;;;;;15.98;9.18;;;;;;;21.61;52.31;99735.59;5014190;28;20511;-62
2021/06/15 05:39:46;;;;;;;26.15;8.63;;;;;;;22.05;50.71;99741.53;5014445;28;20185;-62
2021/06/15 05:42:12;;;;;;;19.02;8.98;;;;;;;22.85;48.81;99744.63;5014108;28;20094;-62
2021/06/15 05:44:37;;;;;;;19.92;9.07;;;;;;;22.76;49.03;99747.28;5014769;28;20491;-63
2021/06/15 05:47:03;;;;;;;25.17;9.15;;;;;;;23.52;46.94;99739.03;5014266;28;20049;-62
2021/06/15 05:49:29;;;;;;;31.05;10.07;;;;;;;24.01;46.05;99739.03;5012850;28;20444;-62
2021/06/15 05:51:59;;;;;;;28.48;10.70;;;;;;;23.68;46.37;99742.16;5013682;28;20034;-62
2021/06/15 05:54:24;;;;;;;30.80;10.23;;;;;;;23.66;46.62;99747.13;5011992;28;20037;-62
2021/06/15 05:56:50;;;;;;;31.60;10.43;;;;;;;23.78;46.09;99750.09;4996048;28;20065;-61
2021/06/15 05:59:15;;;;;;;22.58;10.07;;;;;;;23.55;47.13;99743.06;5012545;28;20052;-61
2021/06/15 06:01:41;;;;;;;34.88;11.75;;;;;;;24.33;44.53;99738.56;5013497;28;20042;-61
2021/06/15 06:04:09;;;;;;;24.95;10.63;;;;;;;24.32;44.73;99736.97;5013748;28;20373;-61
2021/06/15 06:09:19;;;;;;;22.60;11.15;;;;;;;25.86;40.62;99748.28;5013818;28;20084;-62
2021/06/15 06:11:44;;;;;;;28.17;11.52;;;;;;;25.83;41.49;99748.88;5013611;28;20038;-61
2021/06/15 06:14:11;;;;;;;30.17;11.68;;;;;;;27.05;38.65;99750.69;5013929;28;20026;-61
2021/06/15 06:16:36;;;;;;;29.55;10.57;;;;;;;26.71;40.73;99769.16;5011864;28;20507;-61
2021/06/15 06:19:03;;;;;;;30.25;11.50;;;;;;;26.55;41.68;99763.47;5012877;28;20084;-61
2021/06/15 06:21:31;;;;;;;23.08;10.77;;;;;;;26.29;41.38;99757.34;4996158;28;20049;-61
2021/06/15 06:23:56;;;;;;;43.42;12.20;;;;;;;26.65;40.29;99754.00;5013770;28;20064;-61
2021/06/15 06:26:22;;;;;;;31.83;11.63;;;;;;;26.87;39.94;99748.13;5013320;28;20038;-62
2021/06/15 06:28:48;;;;;;;33.05;12.25;;;;;;;25.97;41.34;99760.47;5014107;28;20435;-62
2021/06/15 06:31:13;;;;;;;34.58;13.80;;;;;;;24.07;44.26;99755.00;5013253;28;20088;-61
2021/06/15 06:33:39;;;;;;;34.33;12.93;;;;;;;23.95;45.42;99759.47;5013748;28;20429;-61
2021/06/15 06:36:04;;;;;;;46.92;14.18;;;;;;;25.15;42.54;99746.88;5013242;28;20033;-61
2021/06/15 06:38:30;;;;;;;40.30;13.70;;;;;;;25.15;41.53;99752.38;5013690;28;20145;-62
2021/06/15 06:40:55;;;;;;;47.47;14.30;;;;;;;24.95;42.47;99755.81;5012286;28;20495;-61
2021/06/15 06:43:21;;;;;;;58.78;15.13;;;;;;;25.82;40.45;99770.03;5013458;28;20026;-61
2021/06/15 06:45:46;;;;;;;57.47;14.15;;;;;;;27.70;37.37;99768.22;5012967;28;20064;-61
2021/06/15 06:48:12;;;;;;;39.75;14.13;;;;;;;24.56;43.71;99774.06;5013300;28;20061;-61
2021/06/15 06:50:37;;;;;;;55.13;15.40;;;;;;;22.83;48.33;99770.31;5012822;28;20084;-63
2021/06/15 06:53:03;;;;;;;51.30;14.05;;;;;;;24.24;46.16;99773.38;5012203;28;20026;-62
2021/06/15 06:55:29;;;;;;;49.95;14.85;;;;;;;23.95;46.85;99776.72;5012790;28;20139;-62
2021/06/15 06:57:55;;;;;;;52.80;13.90;;;;;;;23.24;48.04;99776.72;5013411;28;20034;-62
2021/06/15 07:00:21;;;;;;;37.75;13.60;;;;;;;23.14;48.83;99780.53;5012749;28;20141;-62
2021/06/15 07:02:48;;;;;;;45.50;13.52;;;;;;;23.00;48.64;99777.88;5013267;28;20026;-62
2021/06/15 07:05:13;;;;;;;53.03;14.68;;;;;;;23.73;47.81;99772.13;5012554;28;20034;-62
2021/06/15 07:07:39;;;;;;;49.33;12.95;;;;;;;24.97;45.23;99765.31;5013080;28;20427;-62
2021/06/15 07:10:05;;;;;;;45.47;13.40;;;;;;;25.46;42.83;99772.47;5012856;28;20033;-62
2021/06/15 07:12:30;;;;;;;44.65;14.02;;;;;;;25.65;42.75;99763.84;4995627;28;20464;-62
2021/06/15 07:14:56;;;;;;;33.63;14.95;;;;;;;23.95;46.06;99759.47;5013111;28;20133;-61
2021/06/15 07:17:21;;;;;;;31.88;13.95;;;;;;;23.66;47.58;99763.53;5011507;28;20436;-61
2021/06/15 07:19:47;;;;;;;38.15;14.07;;;;;;;24.06;46.83;99761.59;5012990;28;20038;-61
2021/06/15 07:22:12;;;;;;;33.22;14.32;;;;;;;24.50;45.52;99764.41;5012699;28;20049;-61
2021/06/15 07:24:38;;;;;;;31.17;14.80;;;;;;;24.77;44.40;99767.94;5013193;28;20026;-62
2021/06/15 07:27:03;;;;;;;30.38;14.73;;;;;;;23.10;47.89;99773.28;5012495;28;20116;-61
2021/06/15 07:29:29;;;;;;;32.72;15.35;;;;;;;21.95;51.60;99775.31;5012937;28;20065;-62
2021/06/15 07:31:54;;;;;;;38.97;15.30;;;;;;;22.70;49.86;99776.66;5012821;28;20038;-61
2021/06/15 07:34:20;;;;;;;35.92;15.73;;;;;;;22.95;49.24;99769.75;5012959;28;20041;-62
2021/06/15 07:36:46;;;;;;;39.97;14.73;;;;;;;23.80;46.87;99764.28;5011300;28;20121;-61
2021/06/15 07:39:11;;;;;;;36.20;14.77;;;;;;;24.45;46.02;99767.28;5012874;28;20030;-61
2021/06/15 07:41:37;;;;;;;37.28;14.70;;;;;;;23.84;47.89;99769.94;5012553;28;20038;-61
2021/06/15 07:44:04;;;;;;;26.70;14.13;;;;;;;24.49;45.32;99781.97;5012783;28;20329;-61
2021/06/15 07:46:29;;;;;;;41.92;15.68;;;;;;;24.15;46.17;99774.50;5012287;28;20041;-61
2021/06/15 07:48:55;;;;;;;30.23;14.82;;;;;;;24.31;46.79;99779.19;5011495;28;20034;-61
2021/06/15 07:51:20;;;;;;;35.17;16.17;;;;;;;23.70;47.92;99778.22;5012379;28;20092;-61
2021/06/15 07:53:46;;;;;;;29.00;15.00;;;;;;;24.62;45.85;99788.44;5012898;28;20057;-61
2021/06/15 07:56:11;;;;;;;31.08;16.08;;;;;;;24.92;44.27;99778.41;5011034;28;20038;-61
2021/06/15 07:58:37;;;;;;;40.97;15.48;;;;;;;26.50;41.60;99782.06;5012428;28;20041;-61
2021/06/15 08:01:02;;;;;;;38.67;15.65;;;;;;;28.35;37.11;99784.03;5012287;28;20041;-61
2021/06/15 08:03:28;;;;;;;30.55;14.98;;;;;;;27.77;37.97;99784.19;5012875;28;20030;-62
2021/06/15 08:05:53;;;;;;;28.52;13.75;;;;;;;29.73;34.59;99777.19;5012193;28;20045;-61
2021/06/15 08:08:19;;;;;;;34.33;14.85;;;;;;;28.20;37.82;99773.72;5012683;28;20490;-62
2021/06/15 08:10:44;;;;;;;40.08;14.90;;;;;;;29.07;35.95;99783.34;5012343;28;20053;-62
2021/06/15 08:13:10;;;;;;;35.55;15.25;;;;;;;30.58;32.12;99782.22;5012594;28;20018;-62
2021/06/15 08:15:35;;;;;;;32.63;14.65;;;;;;;29.89;33.80;99769.66;5012135;28;20038;-62
2021/06/15 08:18:01;;;;;;;39.22;15.30;;;;;;;28.92;35.67;99766.38;5013277;28;20034;-62
2021/06/15 08:20:26;;;;;;;35.92;14.25;;;;;;;30.16;33.83;99767.13;5015822;28;20045;-61
2021/06/15 08:22:51;;;;;;;33.03;16.20;;;;;;;28.40;36.48;99767.25;5016067;28;20022;-61
2021/06/15 08:25:17;;;;;;;31.40;15.55;;;;;;;29.10;35.64;99766.09;5015169;28;20026;-62
2021/06/15 08:27:42;;;;;;;43.25;14.00;;;;;;;30.45;32.77;99767.75;5015857;28;20026;-62
2021/06/15 08:30:09;;;;;;;39.05;14.13;;;;;;;29.42;34.41;99756.66;5015376;28;20456;-62
2021/06/15 08:32:34;;;;;;;32.63;15.45;;;;;;;29.02;35.19;99768.63;5015931;28;20126;-63
2021/06/15 08:35:00;;;;;;;32.17;14.93;;;;;;;28.32;37.36;99765.44;5015754;28;20022;-62
2021/06/15 08:37:25;;;;;;;34.90;16.92;;;;;;;26.64;40.76;99768.91;4997650;28;20030;-62
2021/06/15 08:39:50;;;;;;;38.00;16.63;;;;;;;26.66;40.91;99761.94;5015665;28;20464;-62
2021/06/15 08:42:16;;;;;;;39.08;15.43;;;;;;;26.82;40.87;99762.09;5015191;28;20041;-62
2021/06/15 08:44:42;;;;;;;31.95;15.73;;;;;;;29.01;36.11;99758.75;5015403;28;20022;-62
2021/06/15 08:47:08;;;;;;;32.05;15.70;;;;;;;29.50;35.70;99767.88;5015009;28;20412;-62
2021/06/15 08:49:33;;;;;;;35.33;16.20;;;;;;;28.68;37.22;99760.97;5015644;28;20026;-61
2021/06/15 08:51:59;;;;;;;30.98;16.10;;;;;;;29.56;35.56;99760.97;5014961;28;20049;-63
2021/06/15 08:54:24;;;;;;;47.13;17.55;;;;;;;28.89;36.40;99767.09;4998001;28;20022;-62
2021/06/15 08:56:50;;;;;;;32.70;15.85;;;;;;;28.56;37.46;99765.41;5013629;28;20038;-63
2021/06/15 08:59:31;;;;;;;31.77;17.60;;;;;;;27.30;39.23;99760.63;5013931;28;20046;-62
2021/06/15 09:01:58;;;;;;;32.08;16.08;;;;;;;27.64;39.48;99753.09;5014866;28;20046;-62
2021/06/15 09:04:24;;;;;;;28.80;16.77;;;;;;;27.74;38.41;99758.13;5015299;28;20029;-62
2021/06/15 09:06:49;;;;;;;31.10;16.08;;;;;;;29.13;35.33;99754.34;5013454;28;20117;-62
2021/06/15 09:09:15;;;;;;;30.98;16.10;;;;;;;27.62;37.44;99760.91;4997498;28;20037;-62
2021/06/15 09:11:55;;;;;;;32.58;14.73;;;;;;;29.14;35.20;99747.69;5014391;28;20042;-62
2021/06/15 09:14:39;;;;;;;;;;;;;;;27.71;38.04;99758.84;5015485;28;20492;-62
2021/06/15 09:17:04;;;;;;;41.53;17.75;;;;;;;26.98;40.51;99754.00;5014580;28;20017;-61
2021/06/15 09:19:35;;;;;;;29.70;14.05;;;;;;;29.34;36.07;99754.91;5013781;28;20034;-62
2021/06/15 09:22:01;;;;;;;29.88;15.55;;;;;;;29.54;35.95;99754.97;5013303;28;20034;-62
2021/06/15 09:24:27;;;;;;;33.70;18.08;;;;;;;28.30;37.91;99756.72;5014663;28;20075;-61
2021/06/15 09:26:57;;;;;;;28.27;15.85;;;;;;;29.40;35.46;99747.94;5014324;28;20034;-61
2021/06/15 09:29:41;;;;;;;34.17;14.68;;;;;;;29.42;36.10;99755.88;5014465;28;20040;-62
2021/06/15 09:32:12;;;;;;;37.35;15.07;;;;;;;29.72;35.12;99755.44;5014321;28;20558;-62
2021/06/15 09:34:52;;;;;;;43.88;14.70;;;;;;;29.93;35.45;99761.47;5014506;28;20058;-62
2021/06/15 09:37:17;;;;;;;37.60;14.88;;;;;;;29.40;36.26;99753.44;5014079;28;20496;-62
2021/06/15 09:39:43;;;;;;;37.67;15.40;;;;;;;30.04;34.79;99754.22;5013054;28;20036;-62
2021/06/15 09:42:11;;;;;;;31.45;14.65;;;;;;;29.34;36.94;99754.09;5013988;28;20507;-62
2021/06/15 09:44:37;;;;;;;33.83;15.18;;;;;;;29.50;35.66;99748.56;5014380;28;20032;-62
2021/06/15 09:47:05;;;;;;;26.38;13.13;;;;;;;29.29;37.01;99752.41;5013885;28;20117;-62
2021/06/15 09:49:35;;;;;;;41.38;14.68;;;;;;;29.48;36.60;99751.69;5014462;28;20076;-62
2021/06/15 09:52:14;;;;;;;35.90;14.43;;;;;;;29.19;36.66;99752.94;5013855;28;20049;-62
2021/06/15 09:54:48;;;;;;;33.70;15.48;;;;;;;30.26;34.08;99761.03;5014390;28;20091;-62
2021/06/15 09:57:24;;;;;;;32.80;14.57;;;;;;;29.04;38.15;99757.25;5012640;28;20042;-61
2021/06/15 10:00:05;;;;;;;31.92;15.90;;;;;;;30.12;35.08;99754.38;5013889;28;20053;-61
2021/06/15 10:02:30;;;;;;;27.95;13.50;;;;;;;30.39;35.06;99749.84;4994328;28;20042;-62
2021/06/15 10:04:56;;;;;;;31.40;14.05;;;;;;;30.46;35.18;99750.00;4994500;28;20080;-62
2021/06/15 10:07:25;;;;;;;33.60;14.63;;;;;;;30.44;35.76;99744.03;4992736;28;20464;-62
2021/06/15 10:09:51;;;;;;;28.83;14.60;;;;;;;30.47;35.48;99740.53;4992875;28;20393;-62
2021/06/15 10:12:16;;;;;;;34.63;16.05;;;;;;;29.23;37.18;99743.59;4993709;28;20053;-62
2021/06/15 10:14:42;;;;;;;30.50;14.63;;;;;;;30.35;35.50;99746.19;4976830;28;20060;-62
2021/06/15 10:17:07;;;;;;;24.73;15.25;;;;;;;29.40;35.79;99747.13;4993915;28;20038;-62
2021/06/15 10:19:33;;;;;;;25.80;13.93;;;;;;;29.97;35.65;99753.25;4994070;28;20034;-62
2021/06/15 10:21:59;;;;;;;31.52;13.07;;;;;;;30.03;35.97;99741.56;4993735;28;20035;-62
2021/06/15 10:24:25;;;;;;;37.08;13.57;;;;;;;30.14;35.70;99747.31;4992741;28;20048;-62
2021/06/15 10:26:53;;;;;;;29.10;13.25;;;;;;;29.69;35.88;99748.66;4993803;28;20137;-62
2021/06/15 10:29:19;;;;;;;29.77;14.23;;;;;;;28.56;37.84;99737.81;4994021;28;20027;-61
2021/06/15 10:31:46;;;;;;;26.92;13.88;;;;;;;29.15;36.69;99746.50;5004374;28;20045;-61
2021/06/15 10:34:12;;;;;;;25.35;14.60;;;;;;;29.57;36.45;99745.97;5013531;28;20516;-61
2021/06/15 10:36:42;;;;;;;21.50;13.45;;;;;;;29.87;35.78;99741.59;4995450;28;20125;-61
2021/06/15 10:39:18;;;;;;;24.05;11.90;;;;;;;29.79;35.66;99741.78;5013449;28;20026;-61
2021/06/15 10:41:44;;;;;;;22.85;14.07;;;;;;;27.50;38.35;99749.88;5011603;28;20041;-61
2021/06/15 10:44:10;;;;;;;28.15;15.00;;;;;;;27.63;39.20;99737.75;5013893;28;20030;-61
2021/06/15 10:46:40;;;;;;;21.55;12.13;;;;;;;28.48;38.06;99740.72;5013024;28;20427;-61
2021/06/15 10:49:23;;;;;;;20.83;12.10;;;;;;;28.31;38.64;99736.28;5013411;28;20068;-61
2021/06/15 10:51:55;;;;;;;26.65;14.32;;;;;;;27.94;38.67;99739.13;5013248;28;20400;-61
2021/06/15 10:54:35;;;;;;;24.00;13.48;;;;;;;27.41;39.80;99738.16;5013564;28;20026;-61
2021/06/15 10:57:28;;;;;;;29.08;12.82;;;;;;;28.67;37.76;99720.78;5012938;28;20038;-61
2021/06/15 11:00:00;;;;;;;27.15;13.18;;;;;;;28.82;36.08;99718.03;5011626;28;20069;-62
2021/06/15 11:02:28;;;;;;;24.77;12.68;;;;;;;28.73;36.63;99719.34;5013036;28;20045;-61
2021/06/15 11:04:55;;;;;;;21.55;11.73;;;;;;;29.68;34.31;99725.00;5013331;28;20116;-62
2021/06/15 11:07:33;;;;;;;24.30;12.02;;;;;;;30.00;34.36;99719.38;5012619;28;20030;-61
2021/06/15 11:09:58;;;;;;;27.83;13.27;;;;;;;28.53;37.04;99716.47;5012994;28;20427;-61
2021/06/15 11:12:25;;;;;;;19.92;13.50;;;;;;;28.59;36.63;99720.56;5012498;28;20054;-61
2021/06/15 11:15:26;;;;;;;25.05;14.10;;;;;;;27.85;38.72;99719.16;5012860;28;20029;-61
2021/06/15 11:17:53;;;;;;;29.00;12.85;;;;;;;27.91;37.76;99720.53;4992600;28;20393;-62
2021/06/15 11:20:29;;;;;;;22.90;13.18;;;;;;;27.36;39.53;99719.13;4993227;28;20397;-61
2021/06/15 11:23:13;;;;;;;24.55;13.30;;;;;;;27.77;37.83;99714.53;4993276;28;20032;-62
2021/06/15 11:25:45;;;;;;;23.35;12.85;;;;;;;28.21;37.89;99718.28;4993043;28;20037;-62
2021/06/15 11:28:39;;;;;;;23.63;13.07;;;;;;;28.71;36.12;99727.19;4993163;28;20030;-62